Rechercher aéroport 
image banner adimage banner adimage banner ad
image banner ad

L77 - Chiriaco Summit

Situé à Chiriaco Summit, United States

ICAO - L77, IATA -

Données fournies par Airmate  

Information générale

Coordonnées: N33°39'53" W115°42'37"
Élévation : 1711 feet MSL.
Variation magnétique : 13° East
Voir autres Aéroports à California

Données opérationnelles

Special qualification required
Heure actuelle UTC:
Heure actuelle locale:
Météo à : KTRM - Jacqueline Cochran Rgnl ( 42 km )
METAR: KTRM 292352Z AUTO 15007KT 10SM CLR 46/11 A2962 RMK AO2 SLP034 T04560106 10467 20422 56026
TAF: KTRM 292325Z 3000/3024 33011KT P6SM SCT200 FM300900 32006KT P6SM SCT200 FM302000 14012KT P6SM SCT200
Voir NOTAMs / SUP AIP / TFR affectant cet aéroport [VIEW]
Fréquences de communication: [VIEW]

Pistes:

Identifiant RWYQFULongueur (ft)Largeur (ft)SurfaceLDA (ft)
06400050ASPH
24400050ASPH

Coordonnées de l'aéroport

Adresse: Chiriaco Summit United States

Vue satellite de L77